Time;durP1;ratioP1;P1;durP2;ratioP2;P2;SDS_P1;SDS_P2;PMS_P1;PMS_P2;Temp;Humidity;BMP_temperature;BMP_pressure;BME280_temperature;BME280_humidity;BME280_pressure;Samples;Min_cycle;Max_cycle;Signal;HPM_P1;HPM_P2
2023/09/03 00:00:13;;;;;;;;;;;;;;;16.54;53.33;101184.44;5056115;28;1040;-67
2023/09/03 00:02:38;;;;;;;;;;;;;;;16.43;53.39;101183.53;5068817;28;1098;-68
2023/09/03 00:05:04;;;;;;;;;;;;;;;16.40;53.48;101184.06;5070485;28;1114;-68
2023/09/03 00:07:30;;;;;;;;;;;;;;;16.59;53.91;101181.75;5056462;28;1075;-67
2023/09/03 00:09:55;;;;;;;;;;;;;;;17.74;54.45;101187.53;5056270;28;1167;-67
2023/09/03 00:12:21;;;;;;;;;;;;;;;17.16;55.18;101175.78;5067496;28;1201;-68
2023/09/03 00:14:46;;;;;;;;;;;;;;;16.97;54.96;101186.38;5076040;28;1184;-67
2023/09/03 00:17:14;;;;;;;;;;;;;;;16.86;54.83;101180.81;5076246;28;1909;-67
2023/09/03 00:19:41;;;;;;;;;;;;;;;16.88;54.29;101180.53;5062381;28;1078;-67
2023/09/03 00:22:06;;;;;;;;;;;;;;;16.79;54.05;101176.63;5063752;28;1043;-67
2023/09/03 00:24:33;;;;;;;;;;;;;;;16.71;53.97;101187.03;5068858;28;1039;-68
2023/09/03 00:26:58;;;;;;;;;;;;;;;16.69;53.98;101186.47;5068582;28;1141;-67
2023/09/03 00:29:24;;;;;;;;;;;;;;;16.60;54.00;101188.06;5073960;28;1038;-67
2023/09/03 00:31:49;;;;;;;;;;;;;;;16.58;53.69;101184.75;5072786;28;1138;-67
2023/09/03 00:34:15;;;;;;;;;;;;;;;16.56;53.56;101178.69;5074134;28;1062;-67
2023/09/03 00:36:41;;;;;;;;;;;;;;;16.57;53.62;101175.69;5072207;28;1164;-67
2023/09/03 00:39:06;;;;;;;;;;;;;;;16.50;53.75;101180.56;5066527;28;1906;-67
2023/09/03 00:41:32;;;;;;;;;;;;;;;16.57;53.26;101177.59;5067417;28;1154;-67
2023/09/03 00:43:58;;;;;;;;;;;;;;;16.54;53.42;101172.66;5073130;28;1143;-67
2023/09/03 00:46:23;;;;;;;;;;;;;;;16.50;53.51;101168.78;5072510;28;1095;-67
2023/09/03 00:48:49;;;;;;;;;;;;;;;16.43;53.44;101172.56;5061607;28;1042;-67
2023/09/03 00:51:15;;;;;;;;;;;;;;;16.65;54.26;101173.53;5072402;28;1139;-66
2023/09/03 00:53:42;;;;;;;;;;;;;;;17.63;54.78;101166.59;5073190;28;1228;-67
2023/09/03 00:56:08;;;;;;;;;;;;;;;17.10;55.02;101162.00;5041841;28;1356;-67
2023/09/03 00:58:34;;;;;;;;;;;;;;;16.90;54.99;101164.66;5061555;28;1905;-68
2023/09/03 01:01:00;;;;;;;;;;;;;;;16.82;54.55;101165.16;5079222;28;1065;-67
2023/09/03 01:03:26;;;;;;;;;;;;;;;16.76;54.46;101165.09;5048297;28;1575;-68
2023/09/03 01:05:51;;;;;;;;;;;;;;;16.76;54.04;101178.84;5061763;28;1161;-67
2023/09/03 01:08:17;;;;;;;;;;;;;;;16.74;53.79;101172.75;5054825;28;1090;-67
2023/09/03 01:10:50;;;;;;;;;;;;;;;16.63;54.01;101173.78;5054500;28;1365;-67
2023/09/03 01:13:25;;;;;;;;;;;;;;;16.58;53.74;101168.28;5079028;28;849;-68
2023/09/03 01:15:51;;;;;;;;;;;;;;;16.58;53.73;101169.09;5046020;28;1091;-68
2023/09/03 01:18:17;;;;;;;;;;;;;;;16.54;53.51;101172.66;5050211;28;1985;-69
2023/09/03 01:20:44;;;;;;;;;;;;;;;16.53;53.48;101166.31;5078962;28;1050;-68
2023/09/03 01:23:10;;;;;;;;;;;;;;;17.40;54.83;101163.25;5078851;28;1121;-68
2023/09/03 01:25:54;;;;;;;;;;;;;;;17.37;54.81;101162.94;5065315;28;1434;-68
2023/09/03 01:28:20;;;;;;;;;;;;;;;16.98;55.12;101166.88;5079257;28;1094;-67
2023/09/03 01:30:45;;;;;;;;;;;;;;;16.86;54.84;101166.25;5065576;28;1154;-68
2023/09/03 01:33:11;;;;;;;;;;;;;;;16.76;54.47;101164.28;5067786;28;1126;-68
2023/09/03 01:35:37;;;;;;;;;;;;;;;16.75;54.14;101163.44;5063363;28;1021;-68
2023/09/03 01:38:02;;;;;;;;;;;;;;;16.66;54.17;101159.56;5068221;28;1984;-68
2023/09/03 01:40:28;;;;;;;;;;;;;;;16.60;54.01;101168.84;5074413;28;1147;-68
2023/09/03 01:42:53;;;;;;;;;;;;;;;16.66;53.78;101176.03;5057571;28;1291;-68
2023/09/03 01:45:19;;;;;;;;;;;;;;;16.52;53.78;101169.31;5059335;28;1051;-68
2023/09/03 01:47:51;;;;;;;;;;;;;;;16.55;53.40;101174.28;5051543;28;1126;-67
2023/09/03 01:50:18;;;;;;;;;;;;;;;16.50;53.67;101160.53;5065410;28;1090;-67
2023/09/03 01:53:10;;;;;;;;;;;;;;;16.43;53.56;101160.75;5049234;28;1119;-68
2023/09/03 01:55:36;;;;;;;;;;;;;;;16.45;53.42;101168.72;5036978;28;1425;-68
2023/09/03 01:58:03;;;;;;;;;;;;;;;16.93;54.27;101166.88;5055656;28;1913;-68
2023/09/03 02:00:28;;;;;;;;;;;;;;;17.37;54.88;101158.25;5060573;28;1110;-67
2023/09/03 02:02:54;;;;;;;;;;;;;;;17.04;54.74;101156.75;5046748;28;909;-67
2023/09/03 02:05:19;;;;;;;;;;;;;;;16.84;54.64;101154.69;5052134;28;1102;-67
2023/09/03 02:07:46;;;;;;;;;;;;;;;16.81;54.32;101152.50;5060007;28;1051;-67
2023/09/03 02:10:11;;;;;;;;;;;;;;;16.73;54.25;101149.16;5060312;28;1495;-67
2023/09/03 02:12:37;;;;;;;;;;;;;;;16.67;54.03;101149.38;5064666;28;1130;-67
2023/09/03 02:15:02;;;;;;;;;;;;;;;16.57;53.85;101150.97;5059712;28;2154;-67
2023/09/03 02:17:28;;;;;;;;;;;;;;;16.57;53.61;101150.16;5062928;28;1901;-67
2023/09/03 02:19:56;;;;;;;;;;;;;;;16.54;53.55;101150.69;5040332;28;1106;-67
2023/09/03 02:22:21;;;;;;;;;;;;;;;16.46;53.73;101140.19;5073195;28;1135;-67
2023/09/03 02:24:47;;;;;;;;;;;;;;;16.51;53.39;101151.19;5070136;28;1006;-66
2023/09/03 02:27:13;;;;;;;;;;;;;;;17.15;54.67;101152.13;5062719;28;1027;-67
2023/09/03 02:29:38;;;;;;;;;;;;;;;17.42;54.88;101150.03;5058202;28;1039;-67
2023/09/03 02:32:05;;;;;;;;;;;;;;;17.04;54.91;101159.50;5071148;28;1159;-68
2023/09/03 02:34:30;;;;;;;;;;;;;;;16.90;54.56;101154.50;5065638;28;1213;-68
2023/09/03 02:36:56;;;;;;;;;;;;;;;16.82;54.59;101154.16;5044930;28;1459;-67
2023/09/03 02:39:22;;;;;;;;;;;;;;;16.77;54.09;101153.03;5065750;28;1906;-68
2023/09/03 02:41:47;;;;;;;;;;;;;;;16.62;54.47;101146.59;5076274;28;1023;-68
2023/09/03 02:44:13;;;;;;;;;;;;;;;16.66;53.91;101143.09;5047907;28;1127;-68
2023/09/03 02:46:39;;;;;;;;;;;;;;;16.63;53.79;101149.06;5076356;28;1015;-68
2023/09/03 02:49:04;;;;;;;;;;;;;;;16.57;53.97;101147.41;5064511;28;1090;-68
2023/09/03 02:51:31;;;;;;;;;;;;;;;16.53;53.57;101154.50;5044706;28;1208;-68
2023/09/03 02:53:57;;;;;;;;;;;;;;;16.52;53.52;101156.44;5083259;28;998;-68
2023/09/03 02:56:23;;;;;;;;;;;;;;;16.49;53.50;101158.88;5063741;28;1105;-68
2023/09/03 02:58:49;;;;;;;;;;;;;;;17.02;54.74;101157.03;5076975;28;1969;-68
2023/09/03 03:01:15;;;;;;;;;;;;;;;17.48;54.72;101153.63;5046626;28;1112;-68
2023/09/03 03:03:40;;;;;;;;;;;;;;;17.07;55.01;101153.50;5051754;28;1163;-68
2023/09/03 03:06:06;;;;;;;;;;;;;;;17.00;54.65;101152.88;5071471;28;1127;-67
2023/09/03 03:08:32;;;;;;;;;;;;;;;16.86;54.38;101147.84;5076507;28;1091;-68
2023/09/03 03:11:07;;;;;;;;;;;;;;;16.74;54.16;101149.97;5075903;28;1025;-68
2023/09/03 03:13:34;;;;;;;;;;;;;;;16.70;53.94;101149.66;5047889;28;1250;-67
2023/09/03 03:16:09;;;;;;;;;;;;;;;16.65;53.93;101146.06;5056447;28;1226;-68
2023/09/03 03:18:35;;;;;;;;;;;;;;;16.63;53.93;101146.34;5022449;28;1902;-67
2023/09/03 03:21:09;;;;;;;;;;;;;;;16.58;53.62;101138.91;5055941;28;1233;-63
2023/09/03 03:23:35;;;;;;;;;;;;;;;16.58;53.31;101143.56;5058910;28;1184;-65
2023/09/03 03:26:00;;;;;;;;;;;;;;;16.48;53.70;101152.56;5045164;28;1167;-62
2023/09/03 03:28:27;;;;;;;;;;;;;;;16.39;53.59;101146.72;5055161;28;1131;-64
2023/09/03 03:30:53;;;;;;;;;;;;;;;16.46;53.17;101146.50;5040886;28;1134;-67
2023/09/03 03:33:18;;;;;;;;;;;;;;;17.17;54.65;101145.28;5068137;28;1039;-67
2023/09/03 03:35:44;;;;;;;;;;;;;;;17.19;54.70;101143.09;5045236;28;1285;-67
2023/09/03 03:38:10;;;;;;;;;;;;;;;16.87;54.91;101146.78;5058215;28;1977;-67
2023/09/03 03:40:36;;;;;;;;;;;;;;;16.81;54.48;101147.00;5044938;28;1245;-67
2023/09/03 03:43:01;;;;;;;;;;;;;;;16.73;54.14;101157.41;5065244;28;1105;-66
2023/09/03 03:45:28;;;;;;;;;;;;;;;16.70;54.07;101149.66;5051962;28;1150;-66
2023/09/03 03:47:54;;;;;;;;;;;;;;;16.58;54.00;101152.63;5050151;28;1218;-61
2023/09/03 03:50:19;;;;;;;;;;;;;;;16.58;53.75;101149.88;5062874;28;1158;-61
2023/09/03 03:52:45;;;;;;;;;;;;;;;16.53;53.63;101162.75;5074505;28;1202;-59
2023/09/03 03:55:11;;;;;;;;;;;;;;;16.51;53.47;101156.69;5062700;28;1206;-62
2023/09/03 03:57:37;;;;;;;;;;;;;;;16.42;53.51;101159.09;5066369;28;1902;-61
2023/09/03 04:00:03;;;;;;;;;;;;;;;16.47;53.35;101161.06;5065168;28;1146;-64
2023/09/03 04:02:37;;;;;;;;;;;;;;;16.39;53.55;101156.88;5066268;28;1083;-59
2023/09/03 04:05:03;;;;;;;;;;;;;;;16.36;53.73;101149.19;5071984;28;1142;-61
2023/09/03 04:07:28;;;;;;;;;;;;;;;16.35;53.73;101147.53;5055761;28;1138;-58
2023/09/03 04:09:54;;;;;;;;;;;;;;;17.48;54.51;101142.63;5076083;28;1111;-60
2023/09/03 04:12:20;;;;;;;;;;;;;;;17.10;54.73;101145.53;5075933;28;1142;-59
2023/09/03 04:14:46;;;;;;;;;;;;;;;16.85;54.88;101150.88;5073657;28;879;-58
2023/09/03 04:17:11;;;;;;;;;;;;;;;16.76;54.47;101142.31;5056863;28;1976;-57
2023/09/03 04:19:38;;;;;;;;;;;;;;;16.65;54.33;101146.91;5064086;28;1039;-58
2023/09/03 04:22:03;;;;;;;;;;;;;;;16.62;54.45;101141.97;5044943;28;1352;-58
2023/09/03 04:24:29;;;;;;;;;;;;;;;16.59;54.01;101143.31;5068521;28;1241;-59
2023/09/03 04:26:55;;;;;;;;;;;;;;;16.47;54.24;101137.19;5048177;28;1160;-58
2023/09/03 04:29:20;;;;;;;;;;;;;;;16.62;53.51;101147.44;5068351;28;1102;-58
2023/09/03 04:31:46;;;;;;;;;;;;;;;16.49;53.71;101151.44;5056230;28;1118;-58
2023/09/03 04:34:13;;;;;;;;;;;;;;;16.47;53.48;101144.59;5052797;28;1147;-58
2023/09/03 04:36:39;;;;;;;;;;;;;;;16.45;53.37;101136.59;5049953;28;1262;-60
2023/09/03 04:39:05;;;;;;;;;;;;;;;17.18;54.59;101132.34;5067893;28;1917;-59
2023/09/03 04:41:31;;;;;;;;;;;;;;;17.23;55.04;101135.13;5045329;28;1521;-60
2023/09/03 04:44:07;;;;;;;;;;;;;;;17.52;56.02;101131.94;5074714;28;1138;-60
2023/09/03 04:46:34;;;;;;;;;;;;;;;16.76;55.42;101126.66;5057327;28;1292;-59
2023/09/03 04:49:01;;;;;;;;;;;;;;;16.60;53.05;101122.16;5045491;28;1301;-60
2023/09/03 04:51:27;;;;;;;;;;;;;;;16.53;51.79;101121.56;5075053;28;1252;-61
2023/09/03 04:53:53;;;;;;;;;;;;;;;16.47;50.73;101131.69;5070095;28;1481;-58
2023/09/03 04:56:18;;;;;;;;;;;;;;;16.43;49.84;101127.81;5037982;28;1143;-60
2023/09/03 04:58:45;;;;;;;;;;;;;;;17.10;52.11;101119.97;5043219;28;1925;-59
2023/09/03 05:01:16;;;;;;;;;;;;;;;16.70;51.70;101115.91;5075882;28;1047;-58
2023/09/03 05:03:45;;;;;;;;;;;;;;;16.62;50.44;101111.75;5052455;28;1110;-60
2023/09/03 05:06:18;;;;;;;;;;;;;;;16.65;49.25;101113.97;5058023;28;1358;-59
2023/09/03 05:08:48;;;;;;;;;;;;;;;16.56;48.70;101115.53;5047455;28;1287;-59
2023/09/03 05:11:15;;;;;;;;;;;;;;;16.53;48.38;101111.41;5057228;28;1185;-65
2023/09/03 05:13:43;;;;;;;;;;;;;;;16.48;47.91;101119.63;5068687;28;1214;-65
2023/09/03 05:16:09;;;;;;;;;;;;;;;16.51;47.49;101118.25;5056848;28;1101;-66
2023/09/03 05:18:35;;;;;;;;;;;;;;;16.48;47.41;101125.13;5049539;28;1963;-64
2023/09/03 05:21:09;;;;;;;;;;;;;;;16.41;47.46;101119.00;5047839;28;1150;-61
2023/09/03 05:23:36;;;;;;;;;;;;;;;16.47;47.06;101117.16;5060886;28;1226;-60
2023/09/03 05:26:02;;;;;;;;;;;;;;;16.85;47.28;101124.22;5061163;28;1162;-60
2023/09/03 05:28:28;;;;;;;;;;;;;;;16.98;49.18;101122.94;5060756;28;1150;-59
2023/09/03 05:30:53;;;;;;;;;;;;;;;16.70;49.10;101130.44;5058430;28;1197;-60
2023/09/03 05:33:19;;;;;;;;;;;;;;;16.65;48.15;101118.59;5040958;28;1222;-60
2023/09/03 05:35:46;;;;;;;;;;;;;;;16.68;47.81;101126.34;5046288;28;1962;-60
2023/09/03 05:38:11;;;;;;;;;;;;;;;16.64;47.25;101123.28;5066652;28;1906;-60
2023/09/03 05:40:37;;;;;;;;;;;;;;;16.72;46.94;101120.03;5078273;28;1148;-61
2023/09/03 05:43:02;;;;;;;;;;;;;;;16.63;46.86;101113.38;5065203;28;1110;-61
2023/09/03 05:45:28;;;;;;;;;;;;;;;16.63;46.76;101112.56;5052166;28;1290;-58
2023/09/03 05:47:54;;;;;;;;;;;;;;;16.57;46.82;101123.50;5058935;28;1087;-60
2023/09/03 05:50:21;;;;;;;;;;;;;;;16.62;46.42;101117.25;5049488;28;1198;-60
2023/09/03 05:52:47;;;;;;;;;;;;;;;17.07;47.70;101126.03;5044908;28;1302;-60
2023/09/03 05:55:13;;;;;;;;;;;;;;;17.05;48.50;101128.19;5040512;28;1231;-60
2023/09/03 05:57:40;;;;;;;;;;;;;;;16.84;48.45;101127.25;5073884;28;1913;-60
2023/09/03 06:00:07;;;;;;;;;;;;;;;16.85;47.70;101118.72;5051319;28;1201;-60
2023/09/03 06:02:36;;;;;;;;;;;;;;;16.84;47.39;101121.75;5054772;28;1170;-60
2023/09/03 06:05:02;;;;;;;;;;;;;;;16.77;47.33;101120.06;5060104;28;1047;-60
2023/09/03 06:07:28;;;;;;;;;;;;;;;16.76;47.15;101121.16;5044244;28;1300;-60
2023/09/03 06:09:53;;;;;;;;;;;;;;;16.71;46.94;101112.88;5077635;28;1178;-60
2023/09/03 06:12:19;;;;;;;;;;;;;;;16.71;46.96;101128.53;5075209;28;1122;-59
2023/09/03 06:14:44;;;;;;;;;;;;;;;16.76;46.84;101123.91;5066865;28;1075;-60
2023/09/03 06:17:10;;;;;;;;;;;;;;;16.71;46.88;101129.38;5075515;28;2046;-60
2023/09/03 06:19:35;;;;;;;;;;;;;;;16.72;46.68;101130.22;5057920;28;1195;-60
2023/09/03 06:22:01;;;;;;;;;;;;;;;16.66;46.88;101121.13;5060084;28;1154;-60
2023/09/03 06:24:27;;;;;;;;;;;;;;;16.80;46.35;101129.69;5068794;28;1032;-60
2023/09/03 06:26:52;;;;;;;;;;;;;;;17.26;47.50;101132.69;5071907;28;1060;-61
2023/09/03 06:29:18;;;;;;;;;;;;;;;17.13;48.57;101129.63;5069422;28;1135;-59
2023/09/03 06:31:43;;;;;;;;;;;;;;;17.02;48.35;101135.03;5071027;28;1128;-58
2023/09/03 06:34:09;;;;;;;;;;;;;;;16.95;48.05;101139.16;5073334;28;1098;-58
2023/09/03 06:36:34;;;;;;;;;;;;;;;16.90;47.82;101128.94;5057483;28;1393;-57
2023/09/03 06:39:00;;;;;;;;;;;;;;;16.91;47.24;101123.19;5059826;28;1913;-61
2023/09/03 06:41:26;;;;;;;;;;;;;;;16.93;46.96;101147.66;5077695;28;1004;-60
2023/09/03 06:43:52;;;;;;;;;;;;;;;16.90;46.85;101143.50;5072295;28;1074;-59
2023/09/03 06:46:18;;;;;;;;;;;;;;;17.00;46.52;101142.75;5069754;28;1138;-59
2023/09/03 06:48:43;;;;;;;;;;;;;;;16.87;46.68;101143.19;5077190;28;1113;-67
2023/09/03 06:51:10;;;;;;;;;;;;;;;16.86;47.07;101141.53;5073838;28;1344;-60
2023/09/03 06:53:35;;;;;;;;;;;;;;;16.91;46.75;101133.34;5077110;28;1043;-60
2023/09/03 06:56:01;;;;;;;;;;;;;;;16.90;46.70;101137.19;5065331;28;1043;-61
2023/09/03 06:58:26;;;;;;;;;;;;;;;16.79;46.84;101138.19;5070859;28;1906;-58
2023/09/03 07:00:52;;;;;;;;;;;;;;;16.85;46.78;101134.41;5074444;28;1170;-61
2023/09/03 07:03:17;;;;;;;;;;;;;;;16.85;46.78;101131.66;5077251;28;1078;-60
2023/09/03 07:05:43;;;;;;;;;;;;;;;16.89;46.52;101130.06;5073823;28;1003;-61
2023/09/03 07:08:09;;;;;;;;;;;;;;;16.84;46.56;101132.72;5062148;28;1254;-59
2023/09/03 07:10:34;;;;;;;;;;;;;;;16.84;46.84;101132.72;5072953;28;1130;-59
2023/09/03 07:13:00;;;;;;;;;;;;;;;16.87;46.85;101132.19;5056830;28;1174;-60
2023/09/03 07:15:26;;;;;;;;;;;;;;;16.89;46.41;101130.88;5060188;28;1128;-63
2023/09/03 07:17:51;;;;;;;;;;;;;;;16.96;46.26;101135.28;5076679;28;1898;-58
2023/09/03 07:20:17;;;;;;;;;;;;;;;16.90;46.37;101135.28;5063467;28;1067;-61
2023/09/03 07:22:42;;;;;;;;;;;;;;;16.90;46.36;101128.94;5076847;28;1415;-60
2023/09/03 07:25:09;;;;;;;;;;;;;;;16.85;46.76;101135.22;5077065;28;1386;-61
2023/09/03 07:27:35;;;;;;;;;;;;;;;16.89;46.64;101135.53;5074338;28;1162;-60
2023/09/03 07:30:00;;;;;;;;;;;;;;;16.86;46.66;101127.81;5069347;28;1139;-60
2023/09/03 07:32:26;;;;;;;;;;;;;;;16.83;46.61;101133.81;5068166;28;1066;-61
2023/09/03 07:34:52;;;;;;;;;;;;;;;16.88;46.58;101123.72;5056854;28;1063;-60
2023/09/03 07:37:18;;;;;;;;;;;;;;;16.95;46.45;101128.97;5060590;28;1980;-59
2023/09/03 07:39:45;;;;;;;;;;;;;;;16.86;46.79;101128.63;5070476;28;1091;-61
2023/09/03 07:42:11;;;;;;;;;;;;;;;16.90;46.55;101128.94;5071867;28;1131;-59
2023/09/03 07:44:36;;;;;;;;;;;;;;;16.96;46.44;101136.13;5067491;28;1079;-62
2023/09/03 07:47:02;;;;;;;;;;;;;;;16.88;46.58;101133.84;5062910;28;1047;-62
2023/09/03 07:49:28;;;;;;;;;;;;;;;16.87;46.75;101127.53;5076672;28;1043;-63
2023/09/03 07:51:53;;;;;;;;;;;;;;;17.00;46.31;101129.00;5063856;28;1087;-62
2023/09/03 07:54:19;;;;;;;;;;;;;;;16.88;46.37;101133.84;5065472;28;1127;-59
2023/09/03 07:56:44;;;;;;;;;;;;;;;16.91;46.44;101136.09;5056314;28;1043;-59
2023/09/03 07:59:10;;;;;;;;;;;;;;;17.02;46.16;101137.78;5038279;28;1954;-60
2023/09/03 08:01:36;;;;;;;;;;;;;;;16.92;46.72;101124.03;5069823;28;1035;-57
2023/09/03 08:04:01;;;;;;;;;;;;;;;17.01;46.23;101119.69;5066958;28;1200;-57
2023/09/03 08:06:27;;;;;;;;;;;;;;;17.02;46.34;101115.00;5075782;28;1401;-60
2023/09/03 08:08:53;;;;;;;;;;;;;;;16.93;46.54;101126.50;5069486;28;1071;-59
2023/09/03 08:11:19;;;;;;;;;;;;;;;16.97;46.46;101132.28;5075867;28;1046;-60
2023/09/03 08:13:45;;;;;;;;;;;;;;;17.01;46.55;101127.91;5058420;28;1222;-58
2023/09/03 08:16:11;;;;;;;;;;;;;;;17.01;46.56;101125.16;5067189;28;1122;-58
2023/09/03 08:18:36;;;;;;;;;;;;;;;17.01;46.44;101124.31;5075677;28;1972;-60
2023/09/03 08:21:02;;;;;;;;;;;;;;;16.97;46.23;101121.31;5064849;28;1119;-57
2023/09/03 08:23:28;;;;;;;;;;;;;;;17.00;46.42;101120.75;5051376;28;1234;-57
2023/09/03 08:25:54;;;;;;;;;;;;;;;17.03;46.33;101114.72;5055732;28;1063;-57
2023/09/03 08:28:19;;;;;;;;;;;;;;;16.98;46.25;101111.94;5074223;28;1161;-57
2023/09/03 08:30:47;;;;;;;;;;;;;;;17.04;46.19;101121.88;5064166;28;1218;-61
2023/09/03 08:33:13;;;;;;;;;;;;;;;17.07;46.26;101123.28;5069187;28;1047;-59
2023/09/03 08:35:38;;;;;;;;;;;;;;;17.03;46.29;101114.72;5059768;28;1167;-62
2023/09/03 08:38:04;;;;;;;;;;;;;;;16.94;46.53;101113.56;5065552;28;1983;-58
2023/09/03 08:40:32;;;;;;;;;;;;;;;17.06;46.11;101103.19;5072720;28;1031;-60
2023/09/03 08:42:58;;;;;;;;;;;;;;;16.98;46.32;101095.47;5065328;28;1061;-62
2023/09/03 08:45:25;;;;;;;;;;;;;;;16.99;46.50;101097.13;5038163;28;1067;-65
2023/09/03 08:47:50;;;;;;;;;;;;;;;17.02;46.28;101104.00;5038143;28;1218;-61
2023/09/03 08:50:16;;;;;;;;;;;;;;;17.03;46.29;101092.75;5072509;28;1083;-62
2023/09/03 08:52:42;;;;;;;;;;;;;;;17.07;46.41;101093.06;5067336;28;1146;-62
2023/09/03 08:55:09;;;;;;;;;;;;;;;17.11;46.28;101094.16;5079851;28;1022;-61
2023/09/03 08:57:35;;;;;;;;;;;;;;;17.14;46.25;101084.53;5069268;28;1975;-65
2023/09/03 09:00:05;;;;;;;;;;;;;;;16.99;46.63;101083.38;5072960;28;1091;-63
2023/09/03 09:02:32;;;;;;;;;;;;;;;17.13;46.19;101085.66;5071188;28;1032;-59
2023/09/03 09:04:57;;;;;;;;;;;;;;;17.09;46.28;101088.91;5078711;28;1074;-59
2023/09/03 09:07:25;;;;;;;;;;;;;;;17.15;46.25;101083.44;5050559;28;1130;-59
2023/09/03 09:09:50;;;;;;;;;;;;;;;17.05;46.49;101084.22;5073474;28;1135;-58
2023/09/03 09:12:27;;;;;;;;;;;;;;;17.14;46.34;101076.28;5059218;28;1151;-58
2023/09/03 09:14:53;;;;;;;;;;;;;;;17.14;46.32;101077.13;5072728;28;1082;-58
2023/09/03 09:17:19;;;;;;;;;;;;;;;17.10;46.39;101079.59;5070780;28;1914;-61
2023/09/03 09:19:45;;;;;;;;;;;;;;;17.22;46.23;101078.50;5078633;28;1047;-58
2023/09/03 09:22:10;;;;;;;;;;;;;;;17.14;46.35;101073.53;5079186;28;1134;-59
2023/09/03 09:24:45;;;;;;;;;;;;;;;17.14;46.30;101079.88;5047753;28;1098;-60
2023/09/03 09:27:14;;;;;;;;;;;;;;;17.09;46.17;101069.69;5047416;28;1449;-61
2023/09/03 09:29:40;;;;;;;;;;;;;;;17.12;46.16;101076.56;5078898;28;981;-60
2023/09/03 09:32:24;;;;;;;;;;;;;;;17.14;46.49;101070.78;5065576;28;1166;-56
2023/09/03 09:34:49;;;;;;;;;;;;;;;17.16;46.08;101074.09;5068372;28;1222;-59
2023/09/03 09:37:15;;;;;;;;;;;;;;;17.18;46.31;101061.75;5076025;28;1035;-58
2023/09/03 09:39:47;;;;;;;;;;;;;;;17.20;46.11;101062.28;5068234;28;1905;-59
2023/09/03 09:42:13;;;;;;;;;;;;;;;17.23;46.28;101074.69;5076574;28;1201;-59
2023/09/03 09:44:40;;;;;;;;;;;;;;;17.17;46.38;101075.78;5078893;28;1213;-61
2023/09/03 09:47:15;;;;;;;;;;;;;;;17.15;46.22;101075.19;5060207;28;1121;-62
2023/09/03 09:49:41;;;;;;;;;;;;;;;17.20;45.87;101083.47;5058448;28;1131;-61
2023/09/03 09:52:07;;;;;;;;;;;;;;;17.03;46.15;101076.25;5058916;28;1064;-61
2023/09/03 09:54:39;;;;;;;;;;;;;;;17.16;46.17;101069.44;5064659;28;967;-61
2023/09/03 09:57:09;;;;;;;;;;;;;;;17.15;45.95;101066.94;5065855;28;1096;-63
2023/09/03 09:59:34;;;;;;;;;;;;;;;17.17;45.90;101076.59;5045448;28;1910;-64
2023/09/03 10:02:01;;;;;;;;;;;;;;;17.18;45.85;101071.91;5065762;28;1129;-64
2023/09/03 10:04:27;;;;;;;;;;;;;;;17.15;45.87;101078.75;5045406;28;1119;-63
2023/09/03 10:06:52;;;;;;;;;;;;;;;17.12;46.13;101068.31;5058527;28;1406;-63
2023/09/03 10:09:18;;;;;;;;;;;;;;;17.16;46.15;101063.94;5072712;28;1055;-61
2023/09/03 10:11:44;;;;;;;;;;;;;;;17.19;45.98;101062.56;5078238;28;1026;-59
2023/09/03 10:14:09;;;;;;;;;;;;;;;17.22;46.01;101062.03;5063041;28;1086;-59
2023/09/03 10:16:35;;;;;;;;;;;;;;;17.20;46.11;101050.50;5059886;28;1301;-60
2023/09/03 10:19:02;;;;;;;;;;;;;;;17.24;46.12;101051.59;5076159;28;1906;-59
2023/09/03 10:21:28;;;;;;;;;;;;;;;17.22;46.13;101056.53;5066865;28;1020;-59
2023/09/03 10:23:53;;;;;;;;;;;;;;;17.22;46.10;101060.13;5064241;28;1090;-59
2023/09/03 10:26:23;;;;;;;;;;;;;;;17.16;46.37;101052.13;5075807;28;1070;-60
2023/09/03 10:28:51;;;;;;;;;;;;;;;17.19;46.10;101055.13;5048860;28;1104;-60
2023/09/03 10:31:16;;;;;;;;;;;;;;;17.16;46.42;101052.94;5078092;28;1142;-61
2023/09/03 10:33:42;;;;;;;;;;;;;;;17.20;46.07;101053.25;5076557;28;1469;-59
2023/09/03 10:36:11;;;;;;;;;;;;;;;17.13;46.41;101045.25;5047773;28;1107;-60
2023/09/03 10:38:37;;;;;;;;;;;;;;;17.23;46.16;101047.19;5062514;28;1942;-62
2023/09/03 10:41:35;;;;;;;;;;;;;;;17.12;46.56;101034.53;5061147;28;1190;-60
2023/09/03 10:44:00;;;;;;;;;;;;;;;17.17;46.49;101034.56;5037720;28;1249;-62
2023/09/03 10:46:26;;;;;;;;;;;;;;;17.20;46.63;101036.75;5052952;28;1446;-60
2023/09/03 10:48:51;;;;;;;;;;;;;;;17.18;46.52;101031.53;5066590;28;1127;-60
2023/09/03 10:51:30;;;;;;;;;;;;;;;17.23;46.21;101030.72;5061645;28;1274;-63
2023/09/03 10:53:56;;;;;;;;;;;;;;;17.14;46.32;101027.66;5056796;28;1134;-60
2023/09/03 10:56:22;;;;;;;;;;;;;;;17.14;46.55;101024.06;5057266;28;1193;-61
2023/09/03 10:58:57;;;;;;;;;;;;;;;17.21;46.18;101021.91;5067998;28;1910;-58
2023/09/03 11:01:24;;;;;;;;;;;;;;;17.23;46.15;101025.22;5058625;28;1083;-58
2023/09/03 11:03:50;;;;;;;;;;;;;;;17.19;46.26;101013.09;5069725;28;1142;-58
2023/09/03 11:06:17;;;;;;;;;;;;;;;17.22;46.27;101015.31;5069972;28;1166;-58
2023/09/03 11:08:42;;;;;;;;;;;;;;;17.19;46.54;101013.09;5074183;28;1163;-58
2023/09/03 11:11:10;;;;;;;;;;;;;;;17.20;46.29;101018.31;5069180;28;1015;-58
2023/09/03 11:13:35;;;;;;;;;;;;;;;17.20;46.59;101015.56;5063737;28;1186;-58
2023/09/03 11:16:01;;;;;;;;;;;;;;;17.25;46.22;101014.75;5070382;28;1210;-58
2023/09/03 11:18:27;;;;;;;;;;;;;;;17.31;45.89;101021.94;5070458;28;1972;-58
2023/09/03 11:20:54;;;;;;;;;;;;;;;17.23;46.09;101014.22;5057733;28;1134;-58
2023/09/03 11:23:20;;;;;;;;;;;;;;;17.26;46.19;100999.91;5069782;28;1115;-58
2023/09/03 11:25:45;;;;;;;;;;;;;;;17.19;46.51;101002.13;5063187;28;1055;-58
2023/09/03 11:28:14;;;;;;;;;;;;;;;17.25;46.11;100992.78;5063972;28;1106;-58
2023/09/03 11:30:39;;;;;;;;;;;;;;;17.23;46.27;101001.28;5075997;28;1133;-58
2023/09/03 11:33:08;;;;;;;;;;;;;;;17.19;46.65;101002.13;5076280;28;1168;-59
2023/09/03 11:35:43;;;;;;;;;;;;;;;17.20;46.57;100993.59;5056361;28;1118;-60
2023/09/03 11:38:09;;;;;;;;;;;;;;;17.22;46.62;101007.91;5050033;28;1976;-59
2023/09/03 11:40:35;;;;;;;;;;;;;;;17.31;46.33;101007.38;5062631;28;1245;-59
2023/09/03 11:43:00;;;;;;;;;;;;;;;17.21;46.50;101003.50;5065071;28;888;-57
2023/09/03 11:45:28;;;;;;;;;;;;;;;17.25;46.14;101012.00;5069803;28;1083;-61
2023/09/03 11:47:54;;;;;;;;;;;;;;;17.30;46.20;101009.28;5067893;28;1056;-59
2023/09/03 11:50:20;;;;;;;;;;;;;;;17.27;45.97;101007.06;5063164;28;1218;-61
2023/09/03 11:52:47;;;;;;;;;;;;;;;17.16;46.54;101002.66;5064286;28;1627;-60
2023/09/03 11:55:12;;;;;;;;;;;;;;;17.21;46.18;101005.44;5074264;28;1087;-61
2023/09/03 11:57:38;;;;;;;;;;;;;;;17.23;46.03;100997.72;5070060;28;1957;-59
2023/09/03 12:00:04;;;;;;;;;;;;;;;17.24;46.26;101002.94;5058170;28;1038;-59
2023/09/03 12:02:31;;;;;;;;;;;;;;;17.28;45.89;100987.56;5045111;28;1056;-58
2023/09/03 12:04:57;;;;;;;;;;;;;;;17.15;46.06;100992.75;5063205;28;1059;-57
2023/09/03 12:07:23;;;;;;;;;;;;;;;17.15;46.27;100992.75;5056049;28;1210;-59
2023/09/03 12:09:49;;;;;;;;;;;;;;;17.20;46.28;100984.53;5076253;28;1162;-58
2023/09/03 12:12:15;;;;;;;;;;;;;;;17.15;46.32;100979.03;5069931;28;1094;-60
2023/09/03 12:14:41;;;;;;;;;;;;;;;17.20;46.36;100981.78;5051244;28;1051;-59
2023/09/03 12:17:06;;;;;;;;;;;;;;;17.17;46.29;100982.34;5056908;28;1138;-60
2023/09/03 12:19:38;;;;;;;;;;;;;;;17.17;46.19;100971.34;5074151;28;1996;-59
2023/09/03 12:22:04;;;;;;;;;;;;;;;17.23;46.33;100964.75;5056129;28;1138;-58
2023/09/03 12:24:30;;;;;;;;;;;;;;;17.27;45.96;100963.91;5055402;28;1158;-67
2023/09/03 12:27:04;;;;;;;;;;;;;;;17.30;46.24;100969.97;5056148;28;1066;-66
2023/09/03 12:29:37;;;;;;;;;;;;;;;17.33;46.09;100969.44;5057144;28;1177;-66
2023/09/03 12:32:03;;;;;;;;;;;;;;;17.24;46.25;100966.41;5075814;28;1058;-66
2023/09/03 12:34:35;;;;;;;;;;;;;;;17.30;45.85;100962.56;5068481;28;1031;-66
2023/09/03 12:37:01;;;;;;;;;;;;;;;17.30;46.05;100954.31;5069447;28;1106;-66
2023/09/03 12:39:27;;;;;;;;;;;;;;;17.30;46.08;100957.06;5055932;28;1906;-66
2023/09/03 12:41:52;;;;;;;;;;;;;;;17.20;46.04;100959.81;5070925;28;1102;-66
2023/09/03 12:44:18;;;;;;;;;;;;;;;17.26;46.17;100953.19;5075832;28;1066;-66